Startpagina
METAR-TAF:

METAR-TAF

Vliegvelden :

Reims, Frankrijk

breedte: 49-12-31N, lengte: 004-09-24E, hoogte: 95 m

Actueel weer

Dit bericht is 32 minuten geleden gemaakt, om 18:00 UTC
Wind 11 kt uit het westnoordwesten, variërend tussen het zuidwesten en het noordnoordwesten
Temperatuur 20°C
Vochtigheid 64%
Druk 1009 hPa
Zicht 10 km of meer
onweer

METAR: LFQA 211800Z AUTO 30011KT 230V330 9999 TS FEW044/// BKN056/// BKN110/// ///CB 20/13 Q1009

Tijdstip: 20:32 (18:32 UTC)


TAF: ontbreekt

Waarnemingen en weersverwachtingen van meer dan 4000 vliegvelden (METAR en TAF).

De beschikbare stations zijn de gele en rode punten op de kaart.

Ga met uw muis naar het station om de naam te zien.

Klik dan om waarnemingen en weersverwachtingen te zien.

kaart wijzigen: klik op de groene knoppen met een zwart kruis om in te zoomen, op de groene knop met een streepje om uit te zoomen of op de groene pijlen voor aangrenzende kaarten.


METAR-TAF: